Time;durP1;ratioP1;P1;durP2;ratioP2;P2;SDS_P1;SDS_P2;PMS_P1;PMS_P2;Temp;Humidity;BMP_temperature;BMP_pressure;BME280_temperature;BME280_humidity;BME280_pressure;Samples;Min_cycle;Max_cycle;Signal;HPM_P1;HPM_P2
2023/06/25 00:02:48;;;;;;;5.95;4.93;;;;;;;23.79;47.76;100572.94;10356381;28;20574;-67
2023/06/25 00:07:49;;;;;;;5.90;5.03;;;;;;;23.69;47.95;100567.06;10356141;28;20041;-66
2023/06/25 00:12:51;;;;;;;4.70;4.30;;;;;;;23.62;48.11;100556.16;10359350;28;20084;-67
2023/06/25 00:17:53;;;;;;;5.40;4.90;;;;;;;23.61;48.40;100569.94;10340586;28;20077;-67
2023/06/25 00:22:54;;;;;;;4.40;4.00;;;;;;;23.59;48.29;100567.41;10367971;28;20119;-69
2023/06/25 00:28:08;;;;;;;5.47;4.97;;;;;;;23.55;48.72;100559.88;10352728;28;20507;-67
2023/06/25 00:33:10;;;;;;;5.23;4.73;;;;;;;23.47;48.84;100556.28;10359172;28;20045;-67
2023/06/25 00:38:12;;;;;;;5.40;4.85;;;;;;;23.48;49.37;100554.44;10357390;28;20300;-68
2023/06/25 00:43:16;;;;;;;4.78;4.38;;;;;;;23.41;49.28;100545.41;10358349;28;20045;-69
2023/06/25 00:48:21;;;;;;;5.10;4.20;;;;;;;23.37;49.33;100552.25;10353003;28;20049;-69
2023/06/25 00:53:23;;;;;;;5.32;4.85;;;;;;;23.34;49.91;100550.78;10352108;28;20161;-67
2023/06/25 00:58:24;;;;;;;4.75;4.35;;;;;;;23.29;49.99;100545.94;10342942;28;20060;-67
2023/06/25 01:03:41;;;;;;;4.97;4.57;;;;;;;23.18;50.33;100538.38;10351779;28;20520;-67
2023/06/25 01:08:49;;;;;;;5.55;5.03;;;;;;;23.16;50.10;100556.72;10345283;28;20045;-68
2023/06/25 01:13:51;;;;;;;5.30;4.70;;;;;;;22.99;50.32;100533.63;10363776;28;20405;-68
2023/06/25 01:18:53;;;;;;;6.57;5.20;;;;;;;23.04;50.71;100544.72;10351458;28;20052;-67
2023/06/25 01:24:06;;;;;;;5.05;4.57;;;;;;;23.02;50.92;100549.53;10369938;28;20682;-67
2023/06/25 01:29:07;;;;;;;5.15;4.65;;;;;;;22.95;51.24;100555.75;10405724;28;20060;-67
2023/06/25 01:34:09;;;;;;;6.40;5.05;;;;;;;22.90;51.12;100541.91;10366901;28;20128;-67
2023/06/25 01:39:10;;;;;;;7.22;4.63;;;;;;;22.82;51.31;100528.50;10365803;28;20141;-67
2023/06/25 01:44:15;;;;;;;4.80;4.40;;;;;;;22.82;51.10;100533.94;10352035;28;20076;-68
2023/06/25 01:49:16;;;;;;;4.60;4.20;;;;;;;22.76;51.35;100532.00;10353609;28;20060;-66
2023/06/25 01:54:32;;;;;;;4.80;4.40;;;;;;;22.70;51.23;100516.50;10354459;28;20053;-67
2023/06/25 01:59:34;;;;;;;4.50;4.10;;;;;;;22.68;51.39;100526.72;10364096;28;20069;-67
2023/06/25 02:04:35;;;;;;;4.78;4.28;;;;;;;22.61;51.45;100515.81;10356368;28;20061;-67
2023/06/25 02:09:37;;;;;;;5.25;4.85;;;;;;;22.63;51.31;100521.06;10362218;28;20057;-67
2023/06/25 02:14:39;;;;;;;4.75;4.32;;;;;;;22.56;51.23;100505.56;10358387;28;20103;-67
2023/06/25 02:19:40;;;;;;;4.97;4.57;;;;;;;22.56;51.28;100513.69;10358174;28;20594;-67
2023/06/25 02:24:42;;;;;;;4.78;4.38;;;;;;;22.55;51.41;100501.16;10357511;28;20057;-67
2023/06/25 02:29:43;;;;;;;4.75;4.10;;;;;;;22.50;51.29;100509.03;10356575;28;20061;-68
2023/06/25 02:34:44;;;;;;;5.50;4.40;;;;;;;22.41;51.62;100496.66;10359333;28;20057;-67
2023/06/25 02:39:46;;;;;;;5.10;4.60;;;;;;;22.44;51.58;100506.28;10359169;28;20114;-66
2023/06/25 02:44:47;;;;;;;5.70;5.20;;;;;;;22.37;51.93;100495.38;10381402;28;20058;-67
2023/06/25 02:49:49;;;;;;;5.55;4.88;;;;;;;22.38;51.93;100502.47;10361241;28;20068;-69
2023/06/25 02:54:50;;;;;;;5.15;4.75;;;;;;;22.29;52.26;100501.72;10360264;28;20122;-67
2023/06/25 02:59:51;;;;;;;5.05;4.65;;;;;;;22.27;52.44;100503.81;10361314;28;20248;-67
2023/06/25 03:04:53;;;;;;;5.30;4.85;;;;;;;22.22;52.78;100496.25;10358082;28;20505;-67
2023/06/25 03:09:54;;;;;;;6.45;4.85;;;;;;;22.19;53.43;100491.22;10356636;28;20049;-67
2023/06/25 03:14:56;;;;;;;5.40;4.90;;;;;;;22.18;53.33;100486.81;10358273;28;20148;-69
2023/06/25 03:19:59;;;;;;;5.30;4.80;;;;;;;22.11;53.78;100493.22;10359500;28;20974;-68
2023/06/25 03:25:02;;;;;;;6.32;5.35;;;;;;;22.06;54.50;100494.63;10359142;28;20136;-67
2023/06/25 03:30:05;;;;;;;5.68;5.13;;;;;;;22.01;54.72;100493.56;10360531;28;20042;-68
2023/06/25 03:35:06;;;;;;;6.55;5.50;;;;;;;22.01;54.89;100504.41;10357784;28;20452;-68
2023/06/25 03:40:08;;;;;;;5.32;4.72;;;;;;;21.96;54.80;100501.41;10350353;28;21575;-68
2023/06/25 03:45:10;;;;;;;6.30;5.68;;;;;;;21.92;55.07;100500.97;10360572;28;20042;-68
2023/06/25 03:50:11;;;;;;;5.47;4.97;;;;;;;21.94;54.96;100489.94;10356201;28;20049;-68
2023/06/25 03:55:13;;;;;;;5.97;5.35;;;;;;;21.89;55.31;100488.63;10350779;28;20420;-68
2023/06/25 04:00:14;;;;;;;5.45;4.95;;;;;;;21.90;54.69;100486.75;10355884;28;20049;-66
2023/06/25 04:05:16;;;;;;;6.40;5.38;;;;;;;21.92;55.46;100486.56;10355895;28;20572;-67
2023/06/25 04:10:17;;;;;;;5.50;5.00;;;;;;;21.90;55.43;100475.91;10359224;28;20127;-69
2023/06/25 04:15:19;;;;;;;5.32;4.82;;;;;;;21.90;54.90;100481.31;10360180;28;20855;-68
2023/06/25 04:20:20;;;;;;;5.60;5.10;;;;;;;21.88;55.73;100472.56;10390972;28;20155;-68
2023/06/25 04:25:22;;;;;;;6.03;5.43;;;;;;;21.91;55.31;100476.78;10361905;28;20467;-68
2023/06/25 04:30:23;;;;;;;5.97;5.03;;;;;;;21.92;55.35;100484.69;10355944;28;20322;-68
2023/06/25 04:35:25;;;;;;;5.25;4.85;;;;;;;21.89;55.48;100480.50;10351103;28;20628;-67
2023/06/25 04:40:26;;;;;;;5.72;5.20;;;;;;;21.93;55.49;100483.66;10354327;28;20584;-68
2023/06/25 04:45:28;;;;;;;4.68;4.28;;;;;;;21.93;54.86;100480.94;10355642;28;20048;-67
2023/06/25 04:50:29;;;;;;;5.55;4.70;;;;;;;21.84;55.44;100466.69;10350068;28;20042;-68
2023/06/25 04:55:31;;;;;;;5.00;4.60;;;;;;;21.96;55.15;100485.16;10354771;28;20045;-68
2023/06/25 05:00:32;;;;;;;5.15;4.47;;;;;;;21.99;55.12;100479.34;10367810;28;20441;-68
2023/06/25 05:05:34;;;;;;;5.15;4.60;;;;;;;21.97;54.79;100486.84;10354688;28;20112;-68
2023/06/25 05:10:36;;;;;;;6.70;4.85;;;;;;;21.98;54.47;100499.34;10350137;28;20133;-68
2023/06/25 05:15:39;;;;;;;5.75;4.45;;;;;;;21.99;54.40;100490.19;10346577;28;20076;-68
2023/06/25 05:20:41;;;;;;;5.03;4.43;;;;;;;22.03;54.50;100489.59;10355287;28;20061;-68
2023/06/25 05:25:42;;;;;;;4.38;4.07;;;;;;;22.08;54.29;100499.84;10335982;28;20060;-69
2023/06/25 05:30:43;;;;;;;5.82;4.78;;;;;;;22.08;53.86;100491.72;10353231;28;20599;-68
2023/06/25 05:35:45;;;;;;;5.88;4.70;;;;;;;21.93;54.60;100496.38;10360018;28;20743;-69
2023/06/25 05:40:47;;;;;;;5.45;4.95;;;;;;;22.04;54.22;100490.47;10346827;28;20102;-71
2023/06/25 05:45:48;;;;;;;5.30;4.80;;;;;;;22.10;54.09;100492.38;10356594;28;20107;-69
2023/06/25 05:50:50;;;;;;;4.70;4.20;;;;;;;22.18;53.63;100484.13;10355670;28;20046;-66
2023/06/25 05:55:51;;;;;;;5.13;4.63;;;;;;;22.21;54.00;100493.75;10361142;28;20941;-67
2023/06/25 06:00:52;;;;;;;5.82;4.85;;;;;;;22.33;54.23;100491.38;10361679;28;20701;-68
2023/06/25 06:05:56;;;;;;;4.63;4.22;;;;;;;22.47;53.56;100490.44;10358963;28;20150;-68
2023/06/25 06:10:57;;;;;;;4.88;4.38;;;;;;;22.52;53.54;100496.13;10344916;28;20046;-68
2023/06/25 06:15:59;;;;;;;4.85;4.28;;;;;;;22.59;53.37;100496.16;10361091;28;20061;-68
2023/06/25 06:21:00;;;;;;;5.82;4.32;;;;;;;22.64;53.35;100501.88;10364251;28;20088;-68
2023/06/25 06:26:02;;;;;;;4.35;3.95;;;;;;;22.68;53.10;100494.16;10356651;28;20053;-68
2023/06/25 06:31:03;;;;;;;4.57;4.10;;;;;;;22.91;53.19;100504.78;10351444;28;20050;-70
2023/06/25 06:36:05;;;;;;;4.35;3.97;;;;;;;22.94;52.83;100502.50;10353348;28;20076;-71
2023/06/25 06:41:06;;;;;;;5.30;4.50;;;;;;;23.13;52.61;100502.81;10376895;28;20053;-69
2023/06/25 06:46:07;;;;;;;5.50;4.97;;;;;;;23.25;52.03;100495.78;10353860;28;20099;-69
2023/06/25 06:51:09;;;;;;;4.47;3.95;;;;;;;23.39;51.90;100496.72;10349659;28;20142;-69
2023/06/25 06:56:10;;;;;;;4.55;4.15;;;;;;;23.47;50.16;100510.09;10349366;28;20052;-69
2023/06/25 07:01:12;;;;;;;5.10;4.05;;;;;;;23.61;50.09;100497.41;10350937;28;20049;-68
2023/06/25 07:06:13;;;;;;;4.65;4.05;;;;;;;23.71;48.42;100490.78;10352835;28;20079;-71
2023/06/25 07:11:18;;;;;;;4.57;4.15;;;;;;;23.80;48.06;100497.69;10409874;28;20050;-71
2023/06/25 07:16:19;;;;;;;4.13;3.72;;;;;;;23.98;48.67;100506.13;10395291;28;20052;-70
2023/06/25 07:21:21;;;;;;;4.50;4.10;;;;;;;24.15;48.06;100489.41;10378398;28;20053;-68
2023/06/25 07:26:22;;;;;;;4.00;3.70;;;;;;;24.39;47.48;100492.59;10359328;28;20784;-69
2023/06/25 07:31:24;;;;;;;4.38;3.97;;;;;;;24.49;47.19;100499.28;10358386;28;20164;-70
2023/06/25 07:36:26;;;;;;;4.45;3.78;;;;;;;24.55;47.37;100500.34;10360000;28;20294;-70
2023/06/25 07:41:27;;;;;;;3.97;3.58;;;;;;;24.75;46.97;100494.88;10333033;28;20097;-70
2023/06/25 07:46:29;;;;;;;5.00;4.55;;;;;;;24.97;45.86;100503.66;10355981;28;20180;-70
2023/06/25 07:51:30;;;;;;;4.40;3.95;;;;;;;25.15;45.57;100494.00;10349948;28;20057;-69
2023/06/25 07:56:32;;;;;;;5.72;4.88;;;;;;;25.35;44.72;100489.31;10350485;28;20064;-71
2023/06/25 08:01:33;;;;;;;4.80;3.85;;;;;;;25.49;44.54;100494.72;10336124;28;20136;-69
2023/06/25 08:06:35;;;;;;;4.82;4.43;;;;;;;25.57;43.45;100472.69;10351224;28;20099;-69
2023/06/25 08:11:36;;;;;;;5.13;4.63;;;;;;;25.54;44.46;100478.56;10348554;28;20412;-69
2023/06/25 08:16:37;;;;;;;5.20;4.25;;;;;;;25.70;44.23;100482.66;10350609;28;20646;-69
2023/06/25 08:21:39;;;;;;;5.30;4.80;;;;;;;25.84;43.28;100480.72;10335120;28;20123;-69
2023/06/25 08:26:40;;;;;;;5.43;4.93;;;;;;;25.99;41.70;100467.66;10350611;28;20500;-69
2023/06/25 08:31:42;;;;;;;5.30;4.82;;;;;;;26.11;41.25;100478.69;10354267;28;20162;-69
2023/06/25 08:36:43;;;;;;;5.93;4.40;;;;;;;26.22;42.14;100477.13;10355446;28;20064;-67
2023/06/25 08:41:44;;;;;;;3.97;3.67;;;;;;;26.30;40.60;100474.13;10333307;28;20533;-68
2023/06/25 08:46:48;;;;;;;4.85;4.43;;;;;;;26.43;40.65;100465.81;10348443;28;20617;-70
2023/06/25 08:51:59;;;;;;;5.28;4.78;;;;;;;26.57;38.90;100465.69;10351990;28;20061;-68
2023/06/25 08:57:01;;;;;;;6.88;5.53;;;;;;;26.67;39.92;100463.34;10340836;28;20053;-68
2023/06/25 09:02:03;;;;;;;4.78;4.38;;;;;;;27.04;40.06;100457.91;10352137;28;20618;-69
2023/06/25 09:07:08;;;;;;;4.95;4.55;;;;;;;27.22;39.44;100448.03;10364398;28;20139;-70
2023/06/25 09:12:10;;;;;;;5.25;4.78;;;;;;;27.50;38.62;100436.53;10352212;28;20507;-70
2023/06/25 09:17:11;;;;;;;5.53;4.83;;;;;;;27.63;37.80;100438.28;10363360;28;20073;-69
2023/06/25 09:22:13;;;;;;;4.90;4.40;;;;;;;27.68;37.43;100430.19;10371417;28;20057;-69
2023/06/25 09:27:19;;;;;;;4.80;4.40;;;;;;;27.65;36.82;100425.19;10356151;28;20393;-69
2023/06/25 09:32:20;;;;;;;5.07;4.05;;;;;;;27.94;37.38;100415.31;10400085;28;20046;-69
2023/06/25 09:37:21;;;;;;;4.40;3.35;;;;;;;28.18;36.98;100418.13;10383668;28;20149;-70
2023/06/25 09:42:23;;;;;;;4.07;3.70;;;;;;;28.37;36.43;100416.09;10355158;28;20403;-71
2023/06/25 09:47:24;;;;;;;3.78;3.47;;;;;;;28.65;35.65;100406.34;10352633;28;20077;-68
2023/06/25 09:52:27;;;;;;;3.85;3.55;;;;;;;28.80;35.34;100398.47;10377098;28;20049;-69
2023/06/25 09:57:28;;;;;;;3.92;3.25;;;;;;;28.84;34.84;100388.69;10389884;28;20049;-69
2023/06/25 10:02:30;;;;;;;3.80;3.50;;;;;;;28.80;34.95;100384.78;10370574;28;20120;-68
2023/06/25 10:07:33;;;;;;;4.25;3.45;;;;;;;28.90;35.36;100375.94;10366997;28;20056;-68
2023/06/25 10:12:38;;;;;;;;;;;;;;;29.14;34.08;100376.72;10362749;28;20560;-68
2023/06/25 10:17:50;;;;;;;3.90;3.60;;;;;;;29.42;34.01;100366.84;10361968;28;20024;-68
2023/06/25 10:23:08;;;;;;;3.78;3.45;;;;;;;29.37;34.41;100364.00;10358777;28;20122;-69
2023/06/25 10:28:12;;;;;;;4.55;3.53;;;;;;;29.72;33.85;100362.97;10359892;28;20111;-68
2023/06/25 10:33:15;;;;;;;4.07;3.42;;;;;;;29.96;32.65;100350.78;10363049;28;20049;-69
2023/06/25 10:38:17;;;;;;;4.50;3.28;;;;;;;30.11;32.90;100346.63;10367087;28;20059;-69
2023/06/25 10:43:19;;;;;;;3.93;3.47;;;;;;;30.26;32.73;100332.28;10371023;28;20078;-68
2023/06/25 10:48:22;;;;;;;4.47;4.07;;;;;;;30.49;30.66;100336.75;10368409;28;20045;-69
2023/06/25 10:53:23;;;;;;;4.07;3.28;;;;;;;30.53;31.43;100337.91;10391273;28;20158;-70
2023/06/25 10:58:25;;;;;;;3.60;3.30;;;;;;;30.58;31.79;100328.91;10360541;28;21057;-69
2023/06/25 11:03:35;;;;;;;3.47;3.20;;;;;;;30.72;30.83;100323.88;10360787;28;20052;-68
2023/06/25 11:08:36;;;;;;;4.03;3.70;;;;;;;30.90;29.88;100314.47;10361921;28;20057;-71
2023/06/25 11:13:38;;;;;;;4.67;3.67;;;;;;;31.07;30.32;100303.41;10360730;28;20129;-69
2023/06/25 11:18:39;;;;;;;3.78;3.20;;;;;;;31.10;29.66;100297.41;10359754;28;20126;-69
2023/06/25 11:23:45;;;;;;;4.63;3.63;;;;;;;31.05;30.42;100292.69;10363370;28;20204;-69
2023/06/25 11:28:48;;;;;;;4.05;3.67;;;;;;;31.18;29.83;100285.91;10347514;28;20291;-69
2023/06/25 11:33:54;;;;;;;3.67;3.38;;;;;;;31.45;29.48;100294.16;10360193;28;20496;-71
2023/06/25 11:38:57;;;;;;;3.10;2.90;;;;;;;31.60;27.93;100274.22;10343878;28;20069;-68
2023/06/25 11:43:59;;;;;;;3.60;3.30;;;;;;;31.55;29.09;100276.94;10358714;28;20051;-69
2023/06/25 11:49:00;;;;;;;3.97;3.67;;;;;;;31.56;28.92;100273.09;10380177;28;20064;-70
2023/06/25 11:54:01;;;;;;;3.40;3.10;;;;;;;31.57;28.91;100266.50;10358621;28;20049;-70
2023/06/25 11:59:03;;;;;;;4.03;3.72;;;;;;;31.63;28.37;100262.72;10356801;28;20052;-70
2023/06/25 12:04:04;;;;;;;4.50;3.42;;;;;;;31.61;28.65;100253.88;10352393;28;21102;-70
2023/06/25 12:09:06;;;;;;;4.28;3.78;;;;;;;31.60;28.45;100257.72;10332200;28;20602;-70
2023/06/25 12:14:08;;;;;;;3.80;3.50;;;;;;;31.53;28.40;100246.91;10351696;28;20127;-70
2023/06/25 12:19:10;;;;;;;4.10;3.38;;;;;;;31.48;28.49;100237.78;10352377;28;20187;-70
2023/06/25 12:24:11;;;;;;;3.45;3.15;;;;;;;31.58;28.79;100235.16;10340013;28;20061;-69
2023/06/25 12:29:12;;;;;;;5.45;3.75;;;;;;;31.61;29.05;100234.63;10353118;28;20104;-70
2023/06/25 12:34:14;;;;;;;3.97;3.67;;;;;;;31.61;29.22;100225.56;10355364;28;20054;-70
2023/06/25 12:39:15;;;;;;;4.75;4.25;;;;;;;31.65;28.79;100222.00;10367662;28;20061;-73
2023/06/25 12:44:17;;;;;;;4.03;3.63;;;;;;;31.56;28.70;100212.59;10402728;28;20045;-69
2023/06/25 12:49:19;;;;;;;3.40;3.10;;;;;;;31.51;29.20;100196.00;10342477;28;20049;-70
2023/06/25 12:54:20;;;;;;;3.75;3.22;;;;;;;31.67;29.25;100203.28;10349228;28;20322;-71
2023/06/25 12:59:22;;;;;;;4.03;3.58;;;;;;;31.64;27.61;100209.34;10352230;28;20076;-70
2023/06/25 13:04:23;;;;;;;3.72;3.08;;;;;;;31.54;28.63;100187.22;10355155;28;20049;-70
2023/06/25 13:09:27;;;;;;;4.05;3.65;;;;;;;31.50;27.99;100191.63;10357650;28;20051;-72
2023/06/25 13:14:28;;;;;;;3.78;3.47;;;;;;;31.59;27.99;100192.81;10355237;28;20061;-70
2023/06/25 13:19:30;;;;;;;3.30;2.72;;;;;;;31.52;26.93;100183.91;10347854;28;20100;-71
2023/06/25 13:24:31;;;;;;;5.30;3.58;;;;;;;31.45;27.03;100172.31;10351465;28;20187;-70
2023/06/25 13:29:32;;;;;;;4.07;3.42;;;;;;;31.47;28.34;100179.22;10341980;28;20049;-70
2023/06/25 13:34:34;;;;;;;3.60;3.30;;;;;;;31.52;27.88;100175.66;10358058;28;20344;-69
2023/06/25 13:39:37;;;;;;;6.63;4.15;;;;;;;31.55;28.37;100172.41;10357335;28;20129;-70
2023/06/25 13:44:39;;;;;;;3.75;3.45;;;;;;;31.52;28.39;100175.66;10338498;28;20057;-72
2023/06/25 13:49:41;;;;;;;3.25;3.03;;;;;;;31.40;27.96;100170.34;10355665;28;20393;-72
2023/06/25 13:54:44;;;;;;;3.78;3.47;;;;;;;31.30;27.58;100171.13;10342532;28;20167;-71
2023/06/25 13:59:45;;;;;;;4.07;3.78;;;;;;;31.16;26.64;100153.41;10354256;28;20108;-71
2023/06/25 14:04:47;;;;;;;3.35;3.13;;;;;;;31.12;27.72;100146.78;10347795;28;20582;-69
2023/06/25 14:09:48;;;;;;;3.78;3.33;;;;;;;31.04;27.49;100133.53;10349747;28;20064;-68
2023/06/25 14:14:50;;;;;;;3.97;3.55;;;;;;;30.91;28.21;100127.38;10362755;28;20672;-68
2023/06/25 14:19:51;;;;;;;3.63;3.33;;;;;;;30.90;28.21;100120.19;10358976;28;20129;-68
2023/06/25 14:24:53;;;;;;;4.45;3.90;;;;;;;30.85;28.19;100118.25;10357538;28;22369;-69
2023/06/25 14:29:54;;;;;;;4.03;3.72;;;;;;;30.87;27.75;100123.47;10350040;28;20060;-70
2023/06/25 14:34:56;;;;;;;3.78;3.42;;;;;;;30.75;27.71;100109.91;10351934;28;20135;-68
2023/06/25 14:39:58;;;;;;;3.55;3.25;;;;;;;30.74;28.29;100101.94;10357904;28;20057;-69
2023/06/25 14:45:04;;;;;;;4.00;3.70;;;;;;;30.75;27.08;100111.84;10386012;28;20088;-70
2023/06/25 14:50:06;;;;;;;3.60;3.28;;;;;;;30.67;26.28;100113.13;10357270;28;20049;-69
2023/06/25 14:55:07;;;;;;;3.85;3.50;;;;;;;30.59;27.55;100103.44;10356097;28;20057;-70
2023/06/25 15:00:09;;;;;;;3.20;2.90;;;;;;;30.52;27.89;100094.56;10347635;28;20549;-67
2023/06/25 15:05:11;;;;;;;;;;;;;;;30.47;27.23;100100.03;10349115;28;20191;-72
2023/06/25 15:10:12;;;;;;;4.07;3.67;;;;;;;30.43;27.13;100087.91;10356160;28;19924;-70
2023/06/25 15:15:14;;;;;;;4.10;3.80;;;;;;;30.44;27.11;100084.06;10350482;28;20088;-71
2023/06/25 15:20:15;;;;;;;3.60;3.30;;;;;;;30.42;27.58;100083.53;10355566;28;20299;-74
2023/06/25 15:25:17;;;;;;;3.50;3.20;;;;;;;30.31;28.06;100072.41;10348865;28;20307;-70
2023/06/25 15:30:18;;;;;;;3.90;3.50;;;;;;;30.35;28.11;100069.13;10357000;28;20350;-68
2023/06/25 15:35:19;;;;;;;3.40;3.10;;;;;;;30.36;28.07;100057.06;10335353;28;20069;-70
2023/06/25 15:40:21;;;;;;;3.20;3.00;;;;;;;30.38;28.15;100049.41;10354194;28;20045;-69
2023/06/25 15:45:24;;;;;;;4.30;3.63;;;;;;;30.42;27.92;100056.06;10349100;28;20148;-69
2023/06/25 15:50:25;;;;;;;4.00;3.63;;;;;;;30.30;28.28;100037.78;10352410;28;20258;-68
2023/06/25 15:55:26;;;;;;;4.17;3.83;;;;;;;30.30;29.22;100037.78;10336692;28;20058;-69
2023/06/25 16:00:28;;;;;;;4.07;3.77;;;;;;;30.25;28.67;100029.53;10346800;28;20304;-68
2023/06/25 16:05:30;;;;;;;;;;;;;;;30.20;28.31;100023.97;10348527;28;20054;-68
2023/06/25 16:10:31;;;;;;;4.05;3.65;;;;;;;30.17;28.56;100021.75;10343896;28;20354;-70
2023/06/25 16:15:33;;;;;;;4.13;3.67;;;;;;;30.14;28.76;100022.25;10335327;28;20054;-69
2023/06/25 16:20:34;;;;;;;3.97;3.63;;;;;;;30.15;28.50;100018.44;10368669;28;20053;-67
2023/06/25 16:25:36;;;;;;;4.07;3.67;;;;;;;30.11;28.52;100020.03;10348671;28;20056;-68
2023/06/25 16:30:37;;;;;;;4.15;3.75;;;;;;;30.09;28.73;100020.28;10348184;28;20052;-68
2023/06/25 16:35:39;;;;;;;3.77;3.47;;;;;;;30.06;28.53;100014.50;10344251;28;20049;-68
2023/06/25 16:40:42;;;;;;;3.90;3.50;;;;;;;30.07;29.36;100010.66;10351334;28;20495;-68
2023/06/25 16:45:45;;;;;;;3.65;3.35;;;;;;;30.03;29.36;100009.53;10336076;28;20143;-68
2023/06/25 16:50:47;;;;;;;3.33;3.03;;;;;;;30.02;29.73;100016.09;10340880;28;20126;-69
2023/06/25 16:55:48;;;;;;;3.97;3.58;;;;;;;29.97;30.10;100012.22;10346933;28;20041;-68
2023/06/25 17:00:49;;;;;;;3.80;3.47;;;;;;;29.94;29.79;100015.47;10349720;28;20121;-69
2023/06/25 17:05:51;;;;;;;4.40;3.40;;;;;;;29.91;30.07;100001.47;10344519;28;20045;-68
2023/06/25 17:10:52;;;;;;;4.57;3.63;;;;;;;29.90;30.33;100008.84;10341645;28;20049;-69
2023/06/25 17:15:54;;;;;;;4.67;4.27;;;;;;;29.90;30.38;100006.09;10342964;28;20103;-68
2023/06/25 17:20:55;;;;;;;3.78;3.47;;;;;;;29.83;30.26;100005.50;10344565;28;20597;-71
2023/06/25 17:25:59;;;;;;;4.63;4.22;;;;;;;29.84;30.90;100017.28;10348438;28;20160;-69
2023/06/25 17:31:00;;;;;;;4.27;3.80;;;;;;;29.73;30.63;100011.66;10347781;28;20132;-67
2023/06/25 17:36:02;;;;;;;5.67;4.40;;;;;;;29.69;30.56;100018.72;10342367;28;20240;-70
2023/06/25 17:41:03;;;;;;;4.40;4.00;;;;;;;29.68;30.85;100013.50;10337635;28;20512;-69
2023/06/25 17:46:05;;;;;;;4.03;3.63;;;;;;;29.64;30.96;100015.94;10344825;28;20497;-68
2023/06/25 17:51:06;;;;;;;4.53;3.80;;;;;;;29.56;30.87;100013.63;10326091;28;20274;-68
2023/06/25 17:56:08;;;;;;;5.43;4.10;;;;;;;29.48;31.26;100014.09;10343999;28;20080;-69
2023/06/25 18:01:10;;;;;;;6.40;3.60;;;;;;;29.43;31.08;100023.06;10360775;28;20062;-69
2023/06/25 18:06:11;;;;;;;4.18;3.83;;;;;;;29.36;30.99;100023.25;10355771;28;20052;-68
2023/06/25 18:11:27;;;;;;;4.00;3.13;;;;;;;29.31;30.93;100014.97;10355140;28;20058;-67
2023/06/25 18:16:28;;;;;;;4.10;3.13;;;;;;;29.25;31.25;100016.81;10359460;28;20794;-69
2023/06/25 18:21:30;;;;;;;4.07;3.67;;;;;;;29.20;31.32;100030.41;10358332;28;20128;-68
2023/06/25 18:26:32;;;;;;;4.13;3.80;;;;;;;29.15;31.31;100011.16;10360537;28;20050;-65
2023/06/25 18:31:34;;;;;;;3.95;3.58;;;;;;;29.11;31.46;100018.22;10350576;28;20053;-69
2023/06/25 18:36:39;;;;;;;4.88;4.47;;;;;;;29.04;31.53;100012.91;10375979;28;20050;-67
2023/06/25 18:41:40;;;;;;;4.07;3.75;;;;;;;28.95;31.42;100005.41;10347447;28;20042;-69
2023/06/25 18:46:42;;;;;;;4.63;4.23;;;;;;;28.85;31.43;100000.56;10358596;28;20227;-66
2023/06/25 18:51:44;;;;;;;3.92;3.53;;;;;;;28.83;31.60;100011.78;10351632;28;20228;-67
2023/06/25 18:56:45;;;;;;;4.07;3.70;;;;;;;28.78;31.37;100014.47;10359539;28;20576;-69
2023/06/25 19:01:46;;;;;;;5.32;4.43;;;;;;;28.76;31.60;100005.66;10340054;28;20160;-68
2023/06/25 19:06:48;;;;;;;4.20;3.80;;;;;;;28.70;31.45;100001.16;10340912;28;20144;-70
2023/06/25 19:11:49;;;;;;;5.17;3.83;;;;;;;28.62;32.08;99996.94;10357906;28;20124;-68
2023/06/25 19:16:54;;;;;;;3.67;3.37;;;;;;;28.60;32.15;100001.00;10357690;28;20059;-69
2023/06/25 19:21:55;;;;;;;4.22;3.83;;;;;;;28.55;32.39;99998.97;10346654;28;20145;-68
2023/06/25 19:26:56;;;;;;;3.80;3.50;;;;;;;28.48;32.32;99998.31;10348724;28;20178;-67
2023/06/25 19:31:58;;;;;;;4.33;3.93;;;;;;;28.42;32.54;100000.16;10340349;28;20581;-65
2023/06/25 19:37:00;;;;;;;4.13;3.72;;;;;;;28.36;32.57;100009.38;10351953;28;21382;-67
2023/06/25 19:42:01;;;;;;;4.43;4.03;;;;;;;28.28;32.63;99996.06;10338565;28;21273;-66
2023/06/25 19:47:03;;;;;;;4.82;4.28;;;;;;;28.29;32.81;100014.16;10346380;28;20053;-66
2023/06/25 19:52:05;;;;;;;4.53;4.03;;;;;;;28.24;33.01;100016.78;10351765;28;20049;-68
2023/06/25 19:57:06;;;;;;;5.13;4.63;;;;;;;28.18;33.44;100007.69;10346446;28;20059;-67
2023/06/25 20:02:08;;;;;;;5.15;4.65;;;;;;;28.11;33.34;100016.03;10347866;28;20169;-68
2023/06/25 20:07:09;;;;;;;6.05;4.43;;;;;;;28.07;33.36;100025.78;10349420;28;20091;-66
2023/06/25 20:12:11;;;;;;;7.30;5.78;;;;;;;28.02;33.64;100017.50;10347040;28;20797;-66
2023/06/25 20:17:12;;;;;;;7.22;6.07;;;;;;;27.94;34.22;100024.16;10346461;28;20076;-66
2023/06/25 20:22:14;;;;;;;8.05;7.03;;;;;;;27.88;34.31;100025.16;10350102;28;20560;-67
2023/06/25 20:27:15;;;;;;;6.68;5.55;;;;;;;27.85;34.50;100025.63;10352890;28;20056;-69
2023/06/25 20:32:17;;;;;;;6.37;5.77;;;;;;;27.80;34.81;100022.78;10347820;28;20134;-68
2023/06/25 20:37:19;;;;;;;5.30;4.80;;;;;;;27.62;34.92;100007.38;10347379;28;20136;-68
2023/06/25 20:42:20;;;;;;;9.27;6.88;;;;;;;27.60;35.16;100018.56;10344559;28;20050;-69
2023/06/25 20:47:22;;;;;;;9.52;7.32;;;;;;;27.58;35.69;100026.19;10363447;28;20057;-67
2023/06/25 20:52:23;;;;;;;5.85;5.25;;;;;;;27.55;35.83;100029.41;10345611;28;20052;-67
2023/06/25 20:57:25;;;;;;;6.57;5.55;;;;;;;27.50;35.83;100034.75;10346223;28;20054;-66
2023/06/25 21:02:26;;;;;;;6.38;5.72;;;;;;;27.43;35.96;100029.44;10352024;28;20054;-67
2023/06/25 21:07:28;;;;;;;9.53;7.70;;;;;;;27.36;36.13;100023.25;10349680;28;20071;-67
2023/06/25 21:12:31;;;;;;;7.90;6.65;;;;;;;27.31;36.37;100014.94;10348820;28;20690;-67
2023/06/25 21:17:32;;;;;;;6.18;5.55;;;;;;;27.23;36.74;100027.03;10333224;28;20054;-67
2023/06/25 21:22:34;;;;;;;8.70;7.80;;;;;;;27.17;37.05;100020.66;10334067;28;20667;-67
2023/06/25 21:27:36;;;;;;;6.80;6.00;;;;;;;27.14;37.30;100018.38;10352992;28;20085;-65
2023/06/25 21:32:38;;;;;;;6.57;5.67;;;;;;;27.11;37.35;100023.47;10348835;28;20057;-63
2023/06/25 21:37:39;;;;;;;9.52;8.45;;;;;;;27.05;38.19;100028.00;10354826;28;20049;-66
2023/06/25 21:42:41;;;;;;;9.45;8.45;;;;;;;26.97;38.03;100026.44;10359563;28;20060;-66
2023/06/25 21:47:42;;;;;;;7.43;6.72;;;;;;;26.94;38.17;100031.56;10346171;28;21013;-67
2023/06/25 21:52:45;;;;;;;7.65;6.85;;;;;;;26.89;38.81;100029.56;10359272;28;20053;-67
2023/06/25 21:57:46;;;;;;;7.60;6.80;;;;;;;26.83;39.05;100026.91;10363462;28;20700;-66
2023/06/25 22:02:48;;;;;;;7.40;5.65;;;;;;;26.75;38.66;100034.41;10361781;28;20057;-66
2023/06/25 22:07:50;;;;;;;6.20;5.65;;;;;;;26.69;39.18;100027.16;10359172;28;20057;-66
2023/06/25 22:12:51;;;;;;;6.13;5.47;;;;;;;26.63;38.88;100033.50;10364280;28;20064;-67
2023/06/25 22:17:53;;;;;;;5.55;5.05;;;;;;;26.59;39.59;100035.91;10359192;28;21190;-66
2023/06/25 22:22:55;;;;;;;5.63;5.13;;;;;;;26.51;39.98;100032.66;10359567;28;20076;-66
2023/06/25 22:27:56;;;;;;;5.68;5.18;;;;;;;26.47;40.30;100032.31;10367259;28;20060;-67
2023/06/25 22:32:57;;;;;;;5.38;4.88;;;;;;;26.41;40.01;100034.06;10362991;28;20120;-66
2023/06/25 22:37:59;;;;;;;6.05;5.55;;;;;;;26.29;40.09;100022.31;10363655;28;20631;-66
2023/06/25 22:43:00;;;;;;;5.75;5.25;;;;;;;26.24;40.43;100025.75;10357140;28;20057;-66
2023/06/25 22:48:02;;;;;;;5.75;5.20;;;;;;;26.24;40.52;100030.34;10360176;28;20199;-66
2023/06/25 22:53:04;;;;;;;6.50;5.90;;;;;;;26.18;40.69;100028.53;10340862;28;20162;-66
2023/06/25 22:58:06;;;;;;;7.23;5.67;;;;;;;26.15;41.02;100029.00;10370238;28;20049;-66
2023/06/25 23:03:08;;;;;;;;;;;;;;;26.09;41.63;100026.16;10360081;28;20050;-66
2023/06/25 23:08:09;;;;;;;5.88;5.38;;;;;;;26.06;40.76;100020.31;10363074;28;19929;-67
2023/06/25 23:13:12;;;;;;;5.88;5.07;;;;;;;25.99;41.12;100025.88;10355625;28;20057;-66